CMA-CGM Fort Saint Georges — FQWZ — position and weather

sailwx.info

Track history (hours):
 
Tides and Currents Weather Stations Pressure Air Temp Water Temp Dewpoint Dewpoint Depression Visibility Wind Speed Wind Dir Waves Ship Positions

CMA-CGM Fort Saint Georges

Last reported at 2018-Apr-22 20:45 UTC. Time now 2018-Apr-25 07:00 UTC.
Position N 46°48' W 004°00'.

Length 197 m; beam 30 m.

Type: Cargo ship. MMSI: 226321000.

Date/timePositionNaut miles runAvg speedWind from/ knotsBaromVisibWave heightAir tempDewpointWater temp
2018-Apr-22 20:45N 46°48' W 004°00'418.5
2018-Apr-22 20:30N 46°49' W 003°54'918.5
2018-Apr-22 20:00N 46°51' W 003°41'918.6
2018-Apr-22 19:30N 46°53' W 003°28'918.7
2018-Apr-22 19:00N 46°55' W 003°14'918.6
2018-Apr-22 18:31N 46°57' W 003°01'918.6
2018-Apr-22 18:00N 46°59' W 002°48'1018.6
2018-Apr-22 17:29N 47°02' W 002°34'817.0
2018-Apr-22 17:00N 47°06' W 002°24'5 9.3
2018-Apr-22 16:30N 47°10' W 002°19'712.7
2018-Apr-22 15:59N 47°15' W 002°13'4 8.3
2018-Apr-22 15:30N 47°18' W 002°09'0 0.4
2018-Apr-22 15:00N 47°18' W 002°09'0 0.0
2018-Apr-22 14:30N 47°18' W 002°09'0 0.0
2018-Apr-22 14:00N 47°18' W 002°09'0 0.0
2018-Apr-22 13:30N 47°18' W 002°09'0 0.0
2018-Apr-22 13:00N 47°18' W 002°09'0 0.0
2018-Apr-22 12:30N 47°18' W 002°09'0 0.0
2018-Apr-22 12:00N 47°18' W 002°09'0 0.0
2018-Apr-22 11:30N 47°18' W 002°09'0 0.0
2018-Apr-22 11:00N 47°18' W 002°09'0 0.0
2018-Apr-22 10:30N 47°18' W 002°09'0 0.0
2018-Apr-22 10:00N 47°18' W 002°09'0 0.0
2018-Apr-22 09:30N 47°18' W 002°09'0 0.0
2018-Apr-22 09:00N 47°18' W 002°09'0 0.0
2018-Apr-22 08:30N 47°18' W 002°09'0 0.0
2018-Apr-22 08:00N 47°18' W 002°09'0 0.0
2018-Apr-22 07:30N 47°18' W 002°09'0 0.0
2018-Apr-22 07:00N 47°18' W 002°09'0 0.0
2018-Apr-22 06:27N 47°18' W 002°09'0 0.0
2018-Apr-22 05:57N 47°18' W 002°09'0 0.0
2018-Apr-22 05:30N 47°18' W 002°09'0 0.0
2018-Apr-22 05:00N 47°18' W 002°09'0 0.0
2018-Apr-22 04:27N 47°18' W 002°09'0 0.0
2018-Apr-22 04:00N 47°18' W 002°09'0 0.0
2018-Apr-22 03:30N 47°18' W 002°09'0 0.0
2018-Apr-22 03:00N 47°18' W 002°09'0 0.1
2018-Apr-22 02:30N 47°18' W 002°09'1 2.4
2018-Apr-22 02:00N 47°17' W 002°11'611.7
2018-Apr-22 01:30N 47°13' W 002°17'612.3
2018-Apr-22 01:00N 47°08' W 002°22'3 6.1
2018-Apr-22 00:30N 47°05' W 002°25'511.0
2018-Apr-22 00:00N 47°02' W 002°31'713.5
2018-Apr-21 23:31N 46°59' W 002°40'1018.0
2018-Apr-21 22:56N 47°01' W 002°55'1219.5
2018-Apr-21 22:20N 47°06' W 003°11'720.3
2018-Apr-21 22:01N 47°08' W 003°20'1020.4
2018-Apr-21 21:31N 47°13' W 003°33'1020.7
2018-Apr-21 21:00N 47°19' W 003°46'1020.9
2018-Apr-21 20:30N 47°25' W 003°58'1021.0
2018-Apr-21 20:01N 47°31' W 004°11'1121.1
2018-Apr-21 19:30N 47°37' W 004°24'1020.9
2018-Apr-21 19:00N 47°43' W 004°37'1020.7
2018-Apr-21 18:31N 47°48' W 004°50'1019.9
2018-Apr-21 18:01N 47°54' W 005°02'1318.1
2018-Apr-21 17:17N 48°02' W 005°18'1018.7
2018-Apr-21 16:43N 48°08' W 005°30'1418.4
2018-Apr-21 15:59N 48°18' W 005°44'11913.9
2018-Apr-21 07:25N 49°43' W 003°37'614.1
2018-Apr-21 07:00N 49°46' W 003°30'714.5
2018-Apr-21 06:31N 49°50' W 003°20'815.2
2018-Apr-21 06:01N 49°54' W 003°10'816.1
2018-Apr-21 05:31N 49°58' W 002°59'816.8
2018-Apr-21 05:00N 50°01' W 002°47'917.3
2018-Apr-21 04:30N 50°03' W 002°34'816.4
2018-Apr-21 04:00N 50°02' W 002°21'916.7
2018-Apr-21 03:27N 49°60' W 002°07'716.3
2018-Apr-21 03:01N 49°57' W 001°56'815.7
2018-Apr-21 02:31N 49°55' W 001°45'815.0
2018-Apr-21 02:00N 49°53' W 001°33'714.2
2018-Apr-21 01:30N 49°51' W 001°23'713.3
2018-Apr-21 01:01N 49°49' W 001°13'612.6
2018-Apr-21 00:30N 49°47' W 001°04'612.5
2018-Apr-21 00:00N 49°45' W 000°55'612.5
2018-Apr-20 23:30N 49°42' W 000°46'612.3
2018-Apr-20 23:00N 49°40' W 000°37'612.6
2018-Apr-20 22:30N 49°38' W 000°28'713.1
2018-Apr-20 22:01N 49°35' W 000°19'713.5
2018-Apr-20 21:31N 49°32' W 000°10'612.7
2018-Apr-20 21:00N 49°30' W 000°00'612.1
2018-Apr-20 20:30N 49°28' E 000°08'1 2.5
2018-Apr-20 19:58N 49°27' E 000°10'0 0.0
2018-Apr-20 19:28N 49°27' E 000°10'0 0.0
2018-Apr-20 18:58N 49°27' E 000°10'0 0.0
2018-Apr-20 18:28N 49°27' E 000°10'0 0.0
2018-Apr-20 17:58N 49°27' E 000°10'0 0.0
2018-Apr-20 17:28N 49°27' E 000°10'0 0.0
2018-Apr-20 16:58N 49°27' E 000°10'0 0.0
2018-Apr-20 16:28N 49°27' E 000°10'0 0.0
2018-Apr-20 15:58N 49°27' E 000°10'0 0.0
2018-Apr-20 15:28N 49°27' E 000°10'0 0.0
2018-Apr-20 14:58N 49°27' E 000°10'0 0.0
2018-Apr-20 14:28N 49°27' E 000°10'0 0.0
2018-Apr-20 13:58N 49°27' E 000°10'0 0.0
2018-Apr-20 13:28N 49°27' E 000°10'0 0.0
2018-Apr-20 12:58N 49°27' E 000°10'0 0.0
2018-Apr-20 12:28N 49°27' E 000°10'0 0.0
2018-Apr-20 11:58N 49°27' E 000°10'0 0.0
2018-Apr-20 11:28N 49°27' E 000°10'0 0.0
2018-Apr-20 10:58N 49°27' E 000°10'0 0.0
2018-Apr-20 10:28N 49°27' E 000°10'0 0.0
2018-Apr-20 09:58N 49°27' E 000°10'0 0.0
2018-Apr-20 09:28N 49°27' E 000°10'0 0.0
2018-Apr-20 08:58N 49°27' E 000°10'0 0.0
2018-Apr-20 08:28N 49°27' E 000°10'0 0.0
2018-Apr-20 07:58N 49°27' E 000°10'0 0.0
2018-Apr-20 07:28N 49°27' E 000°10'0 0.0
2018-Apr-20 06:58N 49°27' E 000°10'0 0.0
2018-Apr-20 06:28N 49°27' E 000°10'0 0.0
2018-Apr-20 05:58N 49°27' E 000°10'0 0.0
2018-Apr-20 05:28N 49°27' E 000°10'0 0.0
2018-Apr-20 04:58N 49°27' E 000°10'0 0.0
2018-Apr-20 04:28N 49°27' E 000°10'0 0.0
2018-Apr-20 03:58N 49°27' E 000°10'0 0.0
2018-Apr-20 03:28N 49°27' E 000°10'0 0.0
2018-Apr-20 02:58N 49°27' E 000°10'0 0.0
2018-Apr-20 02:28N 49°27' E 000°10'0 0.0
2018-Apr-20 01:58N 49°27' E 000°10'0 0.0
2018-Apr-20 01:28N 49°27' E 000°10'0 0.0
2018-Apr-20 00:58N 49°27' E 000°10'0 0.0
2018-Apr-20 00:28N 49°27' E 000°10'0 0.0
2018-Apr-19 23:58N 49°27' E 000°10'0 0.0
2018-Apr-19 23:28N 49°27' E 000°10'0 0.0
2018-Apr-19 22:58N 49°27' E 000°10'0 0.0
2018-Apr-19 22:28N 49°27' E 000°10'0 0.0
2018-Apr-19 21:58N 49°27' E 000°10'0 0.0
2018-Apr-19 21:28N 49°27' E 000°10'0 0.0
2018-Apr-19 20:58N 49°27' E 000°10'0 0.0
2018-Apr-19 20:28N 49°27' E 000°10'0 0.0
2018-Apr-19 19:58N 49°27' E 000°10'0 0.0
2018-Apr-19 19:28N 49°27' E 000°10'1 1.5
2018-Apr-19 19:00N 49°27' E 000°09'4 7.5
2018-Apr-19 18:30N 49°29' E 000°04'613.0
2018-Apr-19 18:01N 49°31' W 000°06'4 8.4
2018-Apr-19 17:30N 49°32' W 000°12'5 9.7
2018-Apr-19 17:00N 49°34' W 000°19'611.1
2018-Apr-19 16:30N 49°40' W 000°18'612.8
2018-Apr-19 16:00N 49°44' W 000°11'713.9
2018-Apr-19 15:30N 49°49' W 000°04'713.3
2018-Apr-19 15:01N 49°55' E 000°01'713.4
2018-Apr-19 14:30N 50°01' E 000°07'713.1
2018-Apr-19 14:00N 50°06' E 000°12'714.2
2018-Apr-19 13:30N 50°12' E 000°19'1616.7
2018-Apr-19 12:33N 50°27' E 000°26'117.6
2018-Apr-19 12:30N 50°28' E 000°27'612.8
2018-Apr-19 11:59N 50°34' E 000°33'612.9
2018-Apr-19 11:30N 50°37' E 000°41'713.1
2018-Apr-19 11:00N 50°41' E 000°49'713.7
2018-Apr-19 10:31N 50°45' E 000°58'714.2
2018-Apr-19 10:00N 50°50' E 001°06'714.1
2018-Apr-19 09:30N 50°54' E 001°16'714.1
2018-Apr-19 09:01N 50°59' E 001°24'713.9
2018-Apr-19 08:31N 51°04' E 001°31'714.5
2018-Apr-19 08:00N 51°09' E 001°39'815.1
2018-Apr-19 07:30N 51°15' E 001°47'714.7
2018-Apr-19 07:00N 51°20' E 001°54'713.1
2018-Apr-19 06:30N 51°25' E 002°01'714.8
2018-Apr-19 06:00N 51°22' E 002°12'713.5
2018-Apr-19 05:30N 51°21' E 002°23'714.1
2018-Apr-19 04:59N 51°23' E 002°34'714.0
2018-Apr-19 04:28N 51°22' E 002°46'714.3
2018-Apr-19 04:00N 51°23' E 002°56'816.2
2018-Apr-19 03:31N 51°24' E 003°09'816.4
2018-Apr-19 03:00N 51°25' E 003°22'714.7
2018-Apr-19 02:30N 51°26' E 003°34'4 7.3
2018-Apr-19 02:00N 51°26' E 003°40'611.4
2018-Apr-19 01:30N 51°22' E 003°45'611.8
2018-Apr-19 01:01N 51°22' E 003°55'611.2
2018-Apr-19 00:31N 51°26' E 004°01'510.7
2018-Apr-19 00:01N 51°22' E 004°06'4 8.8
2018-Apr-18 23:30N 51°22' E 004°13'5 9.2
2018-Apr-18 23:00N 51°18' E 004°18'2 3.9
2018-Apr-18 22:31N 51°17' E 004°20'0 0.0
2018-Apr-18 22:00N 51°17' E 004°20'0 0.6
2018-Apr-18 21:30N 51°16' E 004°20'1 1.0
2018-Apr-18 21:00N 51°16' E 004°21'1 2.6
2018-Apr-18 20:30N 51°16' E 004°23'0 0.0
2018-Apr-18 19:58N 51°16' E 004°23'0 0.0
2018-Apr-18 19:28N 51°16' E 004°23'0 0.0
2018-Apr-18 18:58N 51°16' E 004°23'0 0.0
2018-Apr-18 18:28N 51°16' E 004°23'0 0.0
2018-Apr-18 17:58N 51°16' E 004°23'0 0.0
2018-Apr-18 17:28N 51°16' E 004°23'0 0.0
2018-Apr-18 16:52N 51°16' E 004°23'0 0.0
2018-Apr-18 16:28N 51°16' E 004°23'0 0.0
2018-Apr-18 15:58N 51°16' E 004°23'0 0.0
2018-Apr-18 15:28N 51°16' E 004°23'0 0.0
2018-Apr-18 14:55N 51°16' E 004°23'0 0.0
2018-Apr-18 14:28N 51°16' E 004°23'0 0.0
2018-Apr-18 13:58N 51°16' E 004°23'0 0.0
2018-Apr-18 13:28N 51°16' E 004°23'0 0.0
2018-Apr-18 12:58N 51°16' E 004°23'0 0.0
2018-Apr-18 12:28N 51°16' E 004°23'0 0.0
2018-Apr-18 11:55N 51°16' E 004°23'0 0.0
2018-Apr-18 11:25N 51°16' E 004°23'0 0.0
2018-Apr-18 10:58N 51°16' E 004°23'0 0.0
2018-Apr-18 10:28N 51°16' E 004°23'0 0.0
2018-Apr-18 09:58N 51°16' E 004°23'0 0.0
2018-Apr-18 09:28N 51°16' E 004°23'0 0.0
2018-Apr-18 08:58N 51°16' E 004°23'0 0.0
2018-Apr-18 08:25N 51°16' E 004°23'0 0.0
2018-Apr-18 07:49N 51°16' E 004°23'0 0.0
2018-Apr-18 07:28N 51°16' E 004°23'0 0.0
2018-Apr-18 06:58N 51°16' E 004°23'0 0.0
2018-Apr-18 06:28N 51°16' E 004°23'0 0.0
2018-Apr-18 05:58N 51°16' E 004°23'0 0.0
2018-Apr-18 05:25N 51°16' E 004°23'0 0.0
2018-Apr-18 04:58N 51°16' E 004°23'0 0.0
2018-Apr-18 04:28N 51°16' E 004°23'0 0.0
2018-Apr-18 03:55N 51°16' E 004°23'0 0.0
2018-Apr-18 03:28N 51°16' E 004°23'0 0.0
2018-Apr-18 02:49N 51°16' E 004°23'0 0.0
2018-Apr-18 02:25N 51°16' E 004°23'0 0.0
2018-Apr-18 01:55N 51°16' E 004°23'0 0.0
2018-Apr-18 01:28N 51°16' E 004°23'0 0.0
2018-Apr-18 00:58N 51°16' E 004°23'0 0.0
2018-Apr-18 00:28N 51°16' E 004°23'1 1.9
2018-Apr-18 00:01N 51°16' E 004°21'2 3.2
2018-Apr-17 23:31N 51°17' E 004°20'3 5.8
2018-Apr-17 23:00N 51°20' E 004°18'1 1.6
2018-Apr-17 22:13N 51°21' E 004°17'0 0.0
2018-Apr-17 21:52N 51°21' E 004°17'0 0.0
2018-Apr-17 21:31N 51°21' E 004°17'2 3.8
2018-Apr-17 20:59N 51°21' E 004°14'3 6.8
2018-Apr-17 20:30N 51°23' E 004°09'5 9.6
2018-Apr-17 20:00N 51°24' E 004°02'5 9.1
2018-Apr-17 19:30N 51°22' E 003°56'612.6
2018-Apr-17 19:00N 51°22' E 003°45'611.2
2018-Apr-17 18:30N 51°26' E 003°40'4 8.7
2018-Apr-17 18:00N 51°25' E 003°33'611.7
2018-Apr-17 17:30N 51°24' E 003°24'816.2
2018-Apr-17 17:00N 51°24' E 003°11'917.3
2018-Apr-17 16:31N 51°23' E 002°57'915.7
2018-Apr-17 15:57N 51°22' E 002°44'4 9.4
2018-Apr-17 15:30N 51°22' E 002°37'917.6
2018-Apr-17 14:59N 51°20' E 002°23'919.1
2018-Apr-17 14:30N 51°13' E 002°12'816.4
2018-Apr-17 14:00N 51°06' E 002°06'4 8.3
2018-Apr-17 13:28N 51°02' E 002°10'2 2.8
2018-Apr-17 12:54N 51°01' E 002°11'0 0.0
2018-Apr-17 12:18N 51°01' E 002°11'0 0.0
2018-Apr-17 12:00N 51°01' E 002°11'0 0.0
2018-Apr-17 11:15N 51°01' E 002°11'0 0.0
2018-Apr-17 10:27N 51°01' E 002°11'0 0.0
2018-Apr-17 09:45N 51°01' E 002°11'0 0.0
2018-Apr-17 09:30N 51°01' E 002°11'0 0.0
2018-Apr-17 08:45N 51°01' E 002°11'0 0.0
2018-Apr-17 08:30N 51°01' E 002°11'0 0.0
2018-Apr-17 07:57N 51°01' E 002°11'0 0.0
2018-Apr-17 07:30N 51°01' E 002°11'0 0.0
2018-Apr-17 07:00N 51°01' E 002°11'0 0.0
2018-Apr-17 06:30N 51°01' E 002°11'0 0.0
2018-Apr-17 06:00N 51°01' E 002°11'0 0.0
2018-Apr-17 05:24N 51°01' E 002°11'0 0.0
2018-Apr-17 05:00N 51°01' E 002°11'0 0.0
2018-Apr-17 04:27N 51°01' E 002°11'0 0.0
2018-Apr-17 04:00N 51°01' E 002°11'0 0.0
2018-Apr-17 03:18N 51°01' E 002°11'0 0.0
2018-Apr-17 03:00N 51°01' E 002°11'0 0.0
2018-Apr-17 01:36N 51°01' E 002°11'0 0.0
2018-Apr-17 01:30N 51°01' E 002°11'0 0.0
2018-Apr-17 01:00N 51°01' E 002°11'0 0.0
2018-Apr-17 00:30N 51°01' E 002°11'0 0.0
2018-Apr-17 00:00N 51°01' E 002°11'0 0.0
2018-Apr-16 23:27N 51°01' E 002°11'0 0.0
2018-Apr-16 22:45N 51°01' E 002°11'0 0.0
2018-Apr-16 22:27N 51°01' E 002°11'0 0.0
2018-Apr-16 21:51N 51°01' E 002°11'0 0.0
2018-Apr-16 21:30N 51°01' E 002°11'0 0.0
2018-Apr-16 20:57N 51°01' E 002°11'0 0.0
2018-Apr-16 20:21N 51°01' E 002°11'0 0.0
2018-Apr-16 19:54N 51°01' E 002°11'0 0.0
2018-Apr-16 19:30N 51°01' E 002°11'0 0.0
2018-Apr-16 19:00N 51°01' E 002°11'0 0.0
2018-Apr-16 18:30N 51°01' E 002°11'0 0.0
2018-Apr-16 17:54N 51°01' E 002°11'0 0.0
2018-Apr-16 17:24N 51°01' E 002°11'0 0.0
2018-Apr-16 17:00N 51°01' E 002°11'0 0.0
2018-Apr-16 16:30N 51°01' E 002°11'0 0.0
2018-Apr-16 16:00N 51°01' E 002°11'0 0.0
2018-Apr-16 15:30N 51°01' E 002°11'0 0.0
2018-Apr-16 15:00N 51°01' E 002°11'0 0.0
2018-Apr-16 14:30N 51°01' E 002°11'0 0.0
2018-Apr-16 13:48N 51°01' E 002°11'0 0.0
2018-Apr-16 13:00N 51°01' E 002°11'0 0.0
2018-Apr-16 12:30N 51°01' E 002°11'0 0.0
2018-Apr-16 11:48N 51°01' E 002°11'0 0.1
2018-Apr-16 11:19N 51°01' E 002°11'1 2.7
2018-Apr-16 11:00N 51°01' E 002°10'611.7
2018-Apr-16 10:29N 51°03' E 002°01'713.8
2018-Apr-16 10:00N 51°02' E 001°50'3 5.6
2018-Apr-16 09:30N 51°02' E 001°46'11212.2
2018-Apr-16 00:20N 50°09' W 000°50'413.8
2018-Apr-16 00:00N 50°08' W 000°56'917.1
2018-Apr-15 23:28N 50°05' W 001°10'818.0
2018-Apr-15 23:01N 50°02' W 001°22'918.8
2018-Apr-15 22:30N 49°60' W 001°36'1019.6
2018-Apr-15 22:00N 49°58' W 001°51'1120.1
2018-Apr-15 21:29N 49°55' W 002°07'1020.1
2018-Apr-15 20:58N 49°54' W 002°23'919.8
2018-Apr-15 20:30N 49°52' W 002°37'2319.6
2018-Apr-15 19:19N 49°44' W 003°11'619.3
2018-Apr-15 19:00N 49°42' W 003°20'  
Track history (hours):
 
Tides and Currents Weather Stations Pressure Air Temp Water Temp Dewpoint Dewpoint Depression Visibility Wind Speed Wind Dir Waves Ship Positions

CMA-CGM Fort Saint Georges

Last reported at 2018-Apr-22 20:45 UTC. Time now 2018-Apr-25 07:00 UTC.
Position N 46°48' W 004°00'.

Length 197 m; beam 30 m.

Type: Cargo ship. MMSI: 226321000.

Date/timePositionNaut miles runAvg speedWind from/ knotsBaromVisibWave heightAir tempDewpointWater temp
2018-Apr-22 20:45N 46°48' W 004°00'418.5
2018-Apr-22 20:30N 46°49' W 003°54'918.5
2018-Apr-22 20:00N 46°51' W 003°41'918.6
2018-Apr-22 19:30N 46°53' W 003°28'918.7
2018-Apr-22 19:00N 46°55' W 003°14'918.6
2018-Apr-22 18:31N 46°57' W 003°01'918.6
2018-Apr-22 18:00N 46°59' W 002°48'1018.6
2018-Apr-22 17:29N 47°02' W 002°34'817.0
2018-Apr-22 17:00N 47°06' W 002°24'5 9.3
2018-Apr-22 16:30N 47°10' W 002°19'712.7
2018-Apr-22 15:59N 47°15' W 002°13'4 8.3
2018-Apr-22 15:30N 47°18' W 002°09'0 0.4
2018-Apr-22 15:00N 47°18' W 002°09'0 0.0
2018-Apr-22 14:30N 47°18' W 002°09'0 0.0
2018-Apr-22 14:00N 47°18' W 002°09'0 0.0
2018-Apr-22 13:30N 47°18' W 002°09'0 0.0
2018-Apr-22 13:00N 47°18' W 002°09'0 0.0
2018-Apr-22 12:30N 47°18' W 002°09'0 0.0
2018-Apr-22 12:00N 47°18' W 002°09'0 0.0
2018-Apr-22 11:30N 47°18' W 002°09'0 0.0
2018-Apr-22 11:00N 47°18' W 002°09'0 0.0
2018-Apr-22 10:30N 47°18' W 002°09'0 0.0
2018-Apr-22 10:00N 47°18' W 002°09'0 0.0
2018-Apr-22 09:30N 47°18' W 002°09'0 0.0
2018-Apr-22 09:00N 47°18' W 002°09'0 0.0
2018-Apr-22 08:30N 47°18' W 002°09'0 0.0
2018-Apr-22 08:00N 47°18' W 002°09'0 0.0
2018-Apr-22 07:30N 47°18' W 002°09'0 0.0
2018-Apr-22 07:00N 47°18' W 002°09'0 0.0
2018-Apr-22 06:27N 47°18' W 002°09'0 0.0
2018-Apr-22 05:57N 47°18' W 002°09'0 0.0
2018-Apr-22 05:30N 47°18' W 002°09'0 0.0
2018-Apr-22 05:00N 47°18' W 002°09'0 0.0
2018-Apr-22 04:27N 47°18' W 002°09'0 0.0
2018-Apr-22 04:00N 47°18' W 002°09'0 0.0
2018-Apr-22 03:30N 47°18' W 002°09'0 0.0
2018-Apr-22 03:00N 47°18' W 002°09'0 0.1
2018-Apr-22 02:30N 47°18' W 002°09'1 2.4
2018-Apr-22 02:00N 47°17' W 002°11'611.7
2018-Apr-22 01:30N 47°13' W 002°17'612.3
2018-Apr-22 01:00N 47°08' W 002°22'3 6.1
2018-Apr-22 00:30N 47°05' W 002°25'511.0
2018-Apr-22 00:00N 47°02' W 002°31'713.5
2018-Apr-21 23:31N 46°59' W 002°40'1018.0
2018-Apr-21 22:56N 47°01' W 002°55'1219.5
2018-Apr-21 22:20N 47°06' W 003°11'720.3
2018-Apr-21 22:01N 47°08' W 003°20'1020.4
2018-Apr-21 21:31N 47°13' W 003°33'1020.7
2018-Apr-21 21:00N 47°19' W 003°46'1020.9
2018-Apr-21 20:30N 47°25' W 003°58'1021.0
2018-Apr-21 20:01N 47°31' W 004°11'1121.1
2018-Apr-21 19:30N 47°37' W 004°24'1020.9
2018-Apr-21 19:00N 47°43' W 004°37'1020.7
2018-Apr-21 18:31N 47°48' W 004°50'1019.9
2018-Apr-21 18:01N 47°54' W 005°02'1318.1
2018-Apr-21 17:17N 48°02' W 005°18'1018.7
2018-Apr-21 16:43N 48°08' W 005°30'1418.4
2018-Apr-21 15:59N 48°18' W 005°44'11913.9
2018-Apr-21 07:25N 49°43' W 003°37'614.1
2018-Apr-21 07:00N 49°46' W 003°30'714.5
2018-Apr-21 06:31N 49°50' W 003°20'815.2
2018-Apr-21 06:01N 49°54' W 003°10'816.1
2018-Apr-21 05:31N 49°58' W 002°59'816.8
2018-Apr-21 05:00N 50°01' W 002°47'917.3
2018-Apr-21 04:30N 50°03' W 002°34'816.4
2018-Apr-21 04:00N 50°02' W 002°21'916.7
2018-Apr-21 03:27N 49°60' W 002°07'716.3
2018-Apr-21 03:01N 49°57' W 001°56'815.7
2018-Apr-21 02:31N 49°55' W 001°45'815.0
2018-Apr-21 02:00N 49°53' W 001°33'714.2
2018-Apr-21 01:30N 49°51' W 001°23'713.3
2018-Apr-21 01:01N 49°49' W 001°13'612.6
2018-Apr-21 00:30N 49°47' W 001°04'612.5
2018-Apr-21 00:00N 49°45' W 000°55'612.5
2018-Apr-20 23:30N 49°42' W 000°46'612.3
2018-Apr-20 23:00N 49°40' W 000°37'612.6
2018-Apr-20 22:30N 49°38' W 000°28'713.1
2018-Apr-20 22:01N 49°35' W 000°19'713.5
2018-Apr-20 21:31N 49°32' W 000°10'612.7
2018-Apr-20 21:00N 49°30' W 000°00'612.1
2018-Apr-20 20:30N 49°28' E 000°08'1 2.5
2018-Apr-20 19:58N 49°27' E 000°10'0 0.0
2018-Apr-20 19:28N 49°27' E 000°10'0 0.0
2018-Apr-20 18:58N 49°27' E 000°10'0 0.0
2018-Apr-20 18:28N 49°27' E 000°10'0 0.0
2018-Apr-20 17:58N 49°27' E 000°10'0 0.0
2018-Apr-20 17:28N 49°27' E 000°10'0 0.0
2018-Apr-20 16:58N 49°27' E 000°10'0 0.0
2018-Apr-20 16:28N 49°27' E 000°10'0 0.0
2018-Apr-20 15:58N 49°27' E 000°10'0 0.0
2018-Apr-20 15:28N 49°27' E 000°10'0 0.0
2018-Apr-20 14:58N 49°27' E 000°10'0 0.0
2018-Apr-20 14:28N 49°27' E 000°10'0 0.0
2018-Apr-20 13:58N 49°27' E 000°10'0 0.0
2018-Apr-20 13:28N 49°27' E 000°10'0 0.0
2018-Apr-20 12:58N 49°27' E 000°10'0 0.0
2018-Apr-20 12:28N 49°27' E 000°10'0 0.0
2018-Apr-20 11:58N 49°27' E 000°10'0 0.0
2018-Apr-20 11:28N 49°27' E 000°10'0 0.0
2018-Apr-20 10:58N 49°27' E 000°10'0 0.0
2018-Apr-20 10:28N 49°27' E 000°10'0 0.0
2018-Apr-20 09:58N 49°27' E 000°10'0 0.0
2018-Apr-20 09:28N 49°27' E 000°10'0 0.0
2018-Apr-20 08:58N 49°27' E 000°10'0 0.0
2018-Apr-20 08:28N 49°27' E 000°10'0 0.0
2018-Apr-20 07:58N 49°27' E 000°10'0 0.0
2018-Apr-20 07:28N 49°27' E 000°10'0 0.0
2018-Apr-20 06:58N 49°27' E 000°10'0 0.0
2018-Apr-20 06:28N 49°27' E 000°10'0 0.0
2018-Apr-20 05:58N 49°27' E 000°10'0 0.0
2018-Apr-20 05:28N 49°27' E 000°10'0 0.0
2018-Apr-20 04:58N 49°27' E 000°10'0 0.0
2018-Apr-20 04:28N 49°27' E 000°10'0 0.0
2018-Apr-20 03:58N 49°27' E 000°10'0 0.0
2018-Apr-20 03:28N 49°27' E 000°10'0 0.0
2018-Apr-20 02:58N 49°27' E 000°10'0 0.0
2018-Apr-20 02:28N 49°27' E 000°10'0 0.0
2018-Apr-20 01:58N 49°27' E 000°10'0 0.0
2018-Apr-20 01:28N 49°27' E 000°10'0 0.0
2018-Apr-20 00:58N 49°27' E 000°10'0 0.0
2018-Apr-20 00:28N 49°27' E 000°10'0 0.0
2018-Apr-19 23:58N 49°27' E 000°10'0 0.0
2018-Apr-19 23:28N 49°27' E 000°10'0 0.0
2018-Apr-19 22:58N 49°27' E 000°10'0 0.0
2018-Apr-19 22:28N 49°27' E 000°10'0 0.0
2018-Apr-19 21:58N 49°27' E 000°10'0 0.0
2018-Apr-19 21:28N 49°27' E 000°10'0 0.0
2018-Apr-19 20:58N 49°27' E 000°10'0 0.0
2018-Apr-19 20:28N 49°27' E 000°10'0 0.0
2018-Apr-19 19:58N 49°27' E 000°10'0 0.0
2018-Apr-19 19:28N 49°27' E 000°10'1 1.5
2018-Apr-19 19:00N 49°27' E 000°09'4 7.5
2018-Apr-19 18:30N 49°29' E 000°04'613.0
2018-Apr-19 18:01N 49°31' W 000°06'4 8.4
2018-Apr-19 17:30N 49°32' W 000°12'5 9.7
2018-Apr-19 17:00N 49°34' W 000°19'611.1
2018-Apr-19 16:30N 49°40' W 000°18'612.8
2018-Apr-19 16:00N 49°44' W 000°11'713.9
2018-Apr-19 15:30N 49°49' W 000°04'713.3
2018-Apr-19 15:01N 49°55' E 000°01'713.4
2018-Apr-19 14:30N 50°01' E 000°07'713.1
2018-Apr-19 14:00N 50°06' E 000°12'714.2
2018-Apr-19 13:30N 50°12' E 000°19'1616.7
2018-Apr-19 12:33N 50°27' E 000°26'117.6
2018-Apr-19 12:30N 50°28' E 000°27'612.8
2018-Apr-19 11:59N 50°34' E 000°33'612.9
2018-Apr-19 11:30N 50°37' E 000°41'713.1
2018-Apr-19 11:00N 50°41' E 000°49'713.7
2018-Apr-19 10:31N 50°45' E 000°58'714.2
2018-Apr-19 10:00N 50°50' E 001°06'714.1
2018-Apr-19 09:30N 50°54' E 001°16'714.1
2018-Apr-19 09:01N 50°59' E 001°24'713.9
2018-Apr-19 08:31N 51°04' E 001°31'714.5
2018-Apr-19 08:00N 51°09' E 001°39'815.1
2018-Apr-19 07:30N 51°15' E 001°47'714.7
2018-Apr-19 07:00N 51°20' E 001°54'713.1
2018-Apr-19 06:30N 51°25' E 002°01'714.8
2018-Apr-19 06:00N 51°22' E 002°12'713.5
2018-Apr-19 05:30N 51°21' E 002°23'714.1
2018-Apr-19 04:59N 51°23' E 002°34'714.0
2018-Apr-19 04:28N 51°22' E 002°46'714.3
2018-Apr-19 04:00N 51°23' E 002°56'816.2
2018-Apr-19 03:31N 51°24' E 003°09'816.4
2018-Apr-19 03:00N 51°25' E 003°22'714.7
2018-Apr-19 02:30N 51°26' E 003°34'4 7.3
2018-Apr-19 02:00N 51°26' E 003°40'611.4
2018-Apr-19 01:30N 51°22' E 003°45'611.8
2018-Apr-19 01:01N 51°22' E 003°55'611.2
2018-Apr-19 00:31N 51°26' E 004°01'510.7
2018-Apr-19 00:01N 51°22' E 004°06'4 8.8
2018-Apr-18 23:30N 51°22' E 004°13'5 9.2
2018-Apr-18 23:00N 51°18' E 004°18'2 3.9
2018-Apr-18 22:31N 51°17' E 004°20'0 0.0
2018-Apr-18 22:00N 51°17' E 004°20'0 0.6
2018-Apr-18 21:30N 51°16' E 004°20'1 1.0
2018-Apr-18 21:00N 51°16' E 004°21'1 2.6
2018-Apr-18 20:30N 51°16' E 004°23'0 0.0
2018-Apr-18 19:58N 51°16' E 004°23'0 0.0
2018-Apr-18 19:28N 51°16' E 004°23'0 0.0
2018-Apr-18 18:58N 51°16' E 004°23'0 0.0
2018-Apr-18 18:28N 51°16' E 004°23'0 0.0
2018-Apr-18 17:58N 51°16' E 004°23'0 0.0
2018-Apr-18 17:28N 51°16' E 004°23'0 0.0
2018-Apr-18 16:52N 51°16' E 004°23'0 0.0
2018-Apr-18 16:28N 51°16' E 004°23'0 0.0
2018-Apr-18 15:58N 51°16' E 004°23'0 0.0
2018-Apr-18 15:28N 51°16' E 004°23'0 0.0
2018-Apr-18 14:55N 51°16' E 004°23'0 0.0
2018-Apr-18 14:28N 51°16' E 004°23'0 0.0
2018-Apr-18 13:58N 51°16' E 004°23'0 0.0
2018-Apr-18 13:28N 51°16' E 004°23'0 0.0
2018-Apr-18 12:58N 51°16' E 004°23'0 0.0
2018-Apr-18 12:28N 51°16' E 004°23'0 0.0
2018-Apr-18 11:55N 51°16' E 004°23'0 0.0
2018-Apr-18 11:25N 51°16' E 004°23'0 0.0
2018-Apr-18 10:58N 51°16' E 004°23'0 0.0
2018-Apr-18 10:28N 51°16' E 004°23'0 0.0
2018-Apr-18 09:58N 51°16' E 004°23'0 0.0
2018-Apr-18 09:28N 51°16' E 004°23'0 0.0
2018-Apr-18 08:58N 51°16' E 004°23'0 0.0
2018-Apr-18 08:25N 51°16' E 004°23'0 0.0
2018-Apr-18 07:49N 51°16' E 004°23'0 0.0
2018-Apr-18 07:28N 51°16' E 004°23'0 0.0
2018-Apr-18 06:58N 51°16' E 004°23'0 0.0
2018-Apr-18 06:28N 51°16' E 004°23'0 0.0
2018-Apr-18 05:58N 51°16' E 004°23'0 0.0
2018-Apr-18 05:25N 51°16' E 004°23'0 0.0
2018-Apr-18 04:58N 51°16' E 004°23'0 0.0
2018-Apr-18 04:28N 51°16' E 004°23'0 0.0
2018-Apr-18 03:55N 51°16' E 004°23'0 0.0
2018-Apr-18 03:28N 51°16' E 004°23'0 0.0
2018-Apr-18 02:49N 51°16' E 004°23'0 0.0
2018-Apr-18 02:25N 51°16' E 004°23'0 0.0
2018-Apr-18 01:55N 51°16' E 004°23'0 0.0
2018-Apr-18 01:28N 51°16' E 004°23'0 0.0
2018-Apr-18 00:58N 51°16' E 004°23'0 0.0
2018-Apr-18 00:28N 51°16' E 004°23'1 1.9
2018-Apr-18 00:01N 51°16' E 004°21'2 3.2
2018-Apr-17 23:31N 51°17' E 004°20'3 5.8
2018-Apr-17 23:00N 51°20' E 004°18'1 1.6
2018-Apr-17 22:13N 51°21' E 004°17'0 0.0
2018-Apr-17 21:52N 51°21' E 004°17'0 0.0
2018-Apr-17 21:31N 51°21' E 004°17'2 3.8
2018-Apr-17 20:59N 51°21' E 004°14'3 6.8
2018-Apr-17 20:30N 51°23' E 004°09'5 9.6
2018-Apr-17 20:00N 51°24' E 004°02'5 9.1
2018-Apr-17 19:30N 51°22' E 003°56'612.6
2018-Apr-17 19:00N 51°22' E 003°45'611.2
2018-Apr-17 18:30N 51°26' E 003°40'4 8.7
2018-Apr-17 18:00N 51°25' E 003°33'611.7
2018-Apr-17 17:30N 51°24' E 003°24'816.2
2018-Apr-17 17:00N 51°24' E 003°11'917.3
2018-Apr-17 16:31N 51°23' E 002°57'915.7
2018-Apr-17 15:57N 51°22' E 002°44'4 9.4
2018-Apr-17 15:30N 51°22' E 002°37'917.6
2018-Apr-17 14:59N 51°20' E 002°23'919.1
2018-Apr-17 14:30N 51°13' E 002°12'816.4
2018-Apr-17 14:00N 51°06' E 002°06'4 8.3
2018-Apr-17 13:28N 51°02' E 002°10'2 2.8
2018-Apr-17 12:54N 51°01' E 002°11'0 0.0
2018-Apr-17 12:18N 51°01' E 002°11'0 0.0
2018-Apr-17 12:00N 51°01' E 002°11'0 0.0
2018-Apr-17 11:15N 51°01' E 002°11'0 0.0
2018-Apr-17 10:27N 51°01' E 002°11'0 0.0
2018-Apr-17 09:45N 51°01' E 002°11'0 0.0
2018-Apr-17 09:30N 51°01' E 002°11'0 0.0
2018-Apr-17 08:45N 51°01' E 002°11'0 0.0
2018-Apr-17 08:30N 51°01' E 002°11'0 0.0
2018-Apr-17 07:57N 51°01' E 002°11'0 0.0
2018-Apr-17 07:30N 51°01' E 002°11'0 0.0
2018-Apr-17 07:00N 51°01' E 002°11'0 0.0
2018-Apr-17 06:30N 51°01' E 002°11'0 0.0
2018-Apr-17 06:00N 51°01' E 002°11'0 0.0
2018-Apr-17 05:24N 51°01' E 002°11'0 0.0
2018-Apr-17 05:00N 51°01' E 002°11'0 0.0
2018-Apr-17 04:27N 51°01' E 002°11'0 0.0
2018-Apr-17 04:00N 51°01' E 002°11'0 0.0
2018-Apr-17 03:18N 51°01' E 002°11'0 0.0
2018-Apr-17 03:00N 51°01' E 002°11'0 0.0
2018-Apr-17 01:36N 51°01' E 002°11'0 0.0
2018-Apr-17 01:30N 51°01' E 002°11'0 0.0
2018-Apr-17 01:00N 51°01' E 002°11'0 0.0
2018-Apr-17 00:30N 51°01' E 002°11'0 0.0
2018-Apr-17 00:00N 51°01' E 002°11'0 0.0
2018-Apr-16 23:27N 51°01' E 002°11'0 0.0
2018-Apr-16 22:45N 51°01' E 002°11'0 0.0
2018-Apr-16 22:27N 51°01' E 002°11'0 0.0
2018-Apr-16 21:51N 51°01' E 002°11'0 0.0
2018-Apr-16 21:30N 51°01' E 002°11'0 0.0
2018-Apr-16 20:57N 51°01' E 002°11'0 0.0
2018-Apr-16 20:21N 51°01' E 002°11'0 0.0
2018-Apr-16 19:54N 51°01' E 002°11'0 0.0
2018-Apr-16 19:30N 51°01' E 002°11'0 0.0
2018-Apr-16 19:00N 51°01' E 002°11'0 0.0
2018-Apr-16 18:30N 51°01' E 002°11'0 0.0
2018-Apr-16 17:54N 51°01' E 002°11'0 0.0
2018-Apr-16 17:24N 51°01' E 002°11'0 0.0
2018-Apr-16 17:00N 51°01' E 002°11'0 0.0
2018-Apr-16 16:30N 51°01' E 002°11'0 0.0
2018-Apr-16 16:00N 51°01' E 002°11'0 0.0
2018-Apr-16 15:30N 51°01' E 002°11'0 0.0
2018-Apr-16 15:00N 51°01' E 002°11'0 0.0
2018-Apr-16 14:30N 51°01' E 002°11'0 0.0
2018-Apr-16 13:48N 51°01' E 002°11'0 0.0
2018-Apr-16 13:00N 51°01' E 002°11'0 0.0
2018-Apr-16 12:30N 51°01' E 002°11'0 0.0
2018-Apr-16 11:48N 51°01' E 002°11'0 0.1
2018-Apr-16 11:19N 51°01' E 002°11'1 2.7
2018-Apr-16 11:00N 51°01' E 002°10'611.7
2018-Apr-16 10:29N 51°03' E 002°01'713.8
2018-Apr-16 10:00N 51°02' E 001°50'3 5.6
2018-Apr-16 09:30N 51°02' E 001°46'11212.2
2018-Apr-16 00:20N 50°09' W 000°50'413.8
2018-Apr-16 00:00N 50°08' W 000°56'917.1
2018-Apr-15 23:28N 50°05' W 001°10'818.0
2018-Apr-15 23:01N 50°02' W 001°22'918.8
2018-Apr-15 22:30N 49°60' W 001°36'1019.6
2018-Apr-15 22:00N 49°58' W 001°51'1120.1
2018-Apr-15 21:29N 49°55' W 002°07'1020.1
2018-Apr-15 20:58N 49°54' W 002°23'919.8
2018-Apr-15 20:30N 49°52' W 002°37'2319.6
2018-Apr-15 19:19N 49°44' W 003°11'619.3
2018-Apr-15 19:00N 49°42' W 003°20'  

Dump ship's entire track history